Terminal Aerodrome Forecast
Issued by NWS

Home | Current Version | Previous Version | Text Only | Print | Product List | Glossary On
Versions: 1 2 3 4 5 6 7 8 9 10 11 12
000
FTUS46 KHNX 171120
TAFMCE
TAF
KMCE 171120Z 1712/1812 32006KT P6SM SCT200
     FM172000 32011KT P6SM FEW130 SCT200
     FM180600 32006KT P6SM FEW130 SCT200=

USA.gov is the U.S. government's official web portal to all federal, state and local government web resources and services.